createdAt,value
2022-12-17T00:00:58.963Z,3.31
2022-12-17T00:03:20.272Z,3.21
2022-12-17T00:05:40.830Z,3.17
2022-12-17T00:08:03.890Z,3.16
2022-12-17T00:10:24.835Z,3.11
2022-12-17T00:12:44.822Z,3.14
2022-12-17T00:15:05.434Z,3.08
2022-12-17T00:17:25.471Z,3.07
2022-12-17T00:19:46.013Z,3.13
2022-12-17T00:22:07.502Z,3.13
2022-12-17T00:24:28.124Z,3.10
2022-12-17T00:26:48.923Z,3.09
2022-12-17T00:29:09.257Z,3.10
2022-12-17T00:31:29.829Z,3.05
2022-12-17T00:33:50.124Z,3.09
2022-12-17T00:36:11.784Z,3.14
2022-12-17T00:38:35.912Z,3.15
2022-12-17T00:40:56.129Z,3.06
2022-12-17T00:43:29.556Z,3.11
2022-12-17T00:45:50.205Z,3.09
2022-12-17T00:48:10.760Z,3.06
2022-12-17T00:50:31.009Z,3.08
2022-12-17T00:52:51.500Z,3.07
2022-12-17T00:55:12.240Z,3.09
2022-12-17T00:57:32.839Z,3.10
2022-12-17T00:59:53.057Z,3.11
2022-12-17T01:02:15.137Z,3.13
2022-12-17T01:04:35.838Z,3.10
2022-12-17T01:06:56.583Z,3.11
2022-12-17T01:09:16.949Z,3.10
2022-12-17T01:11:37.511Z,3.15
2022-12-17T01:13:57.779Z,3.17
2022-12-17T01:16:36.267Z,3.23
2022-12-17T01:18:56.898Z,3.26
2022-12-17T01:21:17.308Z,3.26
2022-12-17T01:23:38.198Z,3.29
2022-12-17T01:25:58.653Z,3.27
2022-12-17T01:28:18.868Z,3.31
2022-12-17T01:30:39.485Z,3.27
2022-12-17T01:32:59.936Z,3.24
2022-12-17T01:35:20.497Z,3.26
2022-12-17T01:37:43.414Z,3.24
2022-12-17T01:40:03.820Z,3.19
2022-12-17T01:42:24.242Z,3.19
2022-12-17T01:45:11.209Z,3.16
2022-12-17T01:47:46.747Z,3.14
2022-12-17T01:50:23.786Z,3.09
2022-12-17T01:52:43.977Z,3.06
2022-12-17T01:55:04.460Z,3.03
2022-12-17T01:57:26.054Z,3.03
2022-12-17T01:59:57.578Z,3.05
2022-12-17T02:02:17.765Z,3.02
2022-12-17T02:04:38.076Z,3.03
2022-12-17T02:07:10.110Z,2.99
2022-12-17T02:09:47.400Z,2.96
2022-12-17T02:12:46.751Z,2.90
2022-12-17T02:15:34.988Z,2.83
2022-12-17T02:18:08.167Z,2.86
2022-12-17T02:20:48.915Z,2.83
2022-12-17T02:23:50.706Z,2.87
2022-12-17T02:26:16.603Z,2.90
2022-12-17T02:28:38.728Z,2.93
2022-12-17T02:30:59.214Z,2.93
2022-12-17T02:33:20.044Z,2.93
2022-12-17T02:35:46.774Z,2.93
2022-12-17T02:38:08.661Z,2.93
2022-12-17T02:40:29.714Z,2.97
2022-12-17T02:42:50.523Z,2.84
2022-12-17T02:45:11.080Z,2.89
2022-12-17T02:47:33.044Z,2.89
2022-12-17T02:49:53.521Z,2.89
2022-12-17T02:52:13.976Z,2.87
2022-12-17T02:54:34.121Z,2.93
2022-12-17T02:56:54.309Z,2.96
2022-12-17T02:59:14.576Z,2.99
2022-12-17T03:01:34.977Z,2.96
2022-12-17T03:03:55.393Z,2.91
2022-12-17T03:06:15.396Z,2.81
2022-12-17T03:08:35.921Z,2.80
2022-12-17T03:10:56.437Z,2.66
2022-12-17T03:13:16.642Z,2.74
2022-12-17T03:15:36.918Z,2.68
2022-12-17T03:18:04.951Z,2.58
2022-12-17T03:20:25.682Z,2.64
2022-12-17T03:22:45.846Z,2.60
2022-12-17T03:25:06.324Z,2.63
2022-12-17T03:27:26.802Z,2.52
2022-12-17T03:29:46.969Z,2.60
2022-12-17T03:32:06.950Z,2.48
2022-12-17T03:34:27.207Z,2.50
2022-12-17T03:36:48.390Z,2.49
2022-12-17T03:39:08.580Z,2.50
2022-12-17T03:41:28.942Z,2.40
2022-12-17T03:43:49.363Z,2.51
2022-12-17T03:46:13.356Z,2.42
2022-12-17T03:48:34.278Z,2.51
2022-12-17T03:50:54.214Z,2.52
2022-12-17T03:53:14.296Z,2.55
2022-12-17T03:55:34.627Z,2.57
2022-12-17T03:57:55.053Z,2.64
2022-12-17T04:00:14.991Z,2.65
2022-12-17T04:02:35.282Z,2.69
2022-12-17T04:04:55.760Z,2.66
2022-12-17T04:07:15.880Z,2.64
2022-12-17T04:09:36.090Z,2.60
2022-12-17T04:11:56.081Z,2.68
2022-12-17T04:14:16.567Z,2.65
2022-12-17T04:16:36.614Z,2.60
2022-12-17T04:18:56.784Z,2.63
2022-12-17T04:21:16.978Z,2.57
2022-12-17T04:23:37.880Z,2.64
2022-12-17T04:25:58.430Z,2.60
2022-12-17T04:28:19.085Z,2.54
2022-12-17T04:30:47.002Z,2.56
2022-12-17T04:33:07.643Z,2.55
2022-12-17T04:35:28.134Z,2.65
2022-12-17T04:37:50.042Z,2.59
2022-12-17T04:40:10.042Z,2.69
2022-12-17T04:42:30.588Z,2.66
2022-12-17T04:44:51.178Z,2.59
2022-12-17T04:47:11.424Z,2.68
2022-12-17T04:49:31.612Z,2.71
2022-12-17T04:51:52.100Z,2.77
2022-12-17T04:54:12.624Z,2.80
2022-12-17T04:56:33.077Z,2.83
2022-12-17T04:58:53.749Z,2.83
2022-12-17T05:01:14.228Z,2.86
2022-12-17T05:03:35.831Z,2.88
2022-12-17T05:05:56.488Z,2.93
2022-12-17T05:08:17.022Z,2.96
2022-12-17T05:10:37.569Z,3.00
2022-12-17T05:12:58.097Z,2.95
2022-12-17T05:15:18.209Z,3.01
2022-12-17T05:17:45.942Z,3.03
2022-12-17T05:20:06.442Z,3.05
2022-12-17T05:22:26.708Z,3.06
2022-12-17T05:24:47.340Z,3.03
2022-12-17T05:27:07.973Z,3.01
2022-12-17T05:29:29.064Z,3.07
2022-12-17T05:31:49.077Z,3.08
2022-12-17T05:34:09.329Z,3.14
2022-12-17T05:36:30.559Z,3.17
2022-12-17T05:38:51.107Z,3.20
2022-12-17T05:41:13.790Z,3.17
2022-12-17T05:43:34.720Z,3.24
2022-12-17T05:45:56.733Z,3.28
2022-12-17T05:48:17.612Z,3.33
2022-12-17T05:50:37.590Z,3.36
2022-12-17T05:52:57.664Z,3.39
2022-12-17T05:55:18.041Z,3.42
2022-12-17T05:57:40.600Z,3.42
2022-12-17T06:00:00.929Z,3.30
2022-12-17T06:02:21.291Z,3.31
2022-12-17T06:04:41.743Z,3.33
2022-12-17T06:07:01.693Z,3.35
2022-12-17T06:09:22.316Z,3.30
2022-12-17T06:11:42.920Z,3.34
2022-12-17T06:14:03.893Z,3.34
2022-12-17T06:16:25.304Z,3.29
2022-12-17T06:18:45.762Z,3.31
2022-12-17T06:21:06.162Z,3.41
2022-12-17T06:23:28.970Z,3.43
2022-12-17T06:25:48.842Z,3.43
2022-12-17T06:28:16.724Z,3.51
2022-12-17T06:30:37.097Z,3.43
2022-12-17T06:32:57.684Z,3.47
2022-12-17T06:35:17.947Z,3.49
2022-12-17T06:37:42.853Z,3.61
2022-12-17T06:40:03.082Z,3.64
2022-12-17T06:42:23.659Z,3.64
2022-12-17T06:44:44.161Z,3.66
2022-12-17T06:47:04.579Z,3.58
2022-12-17T06:49:25.019Z,3.66
2022-12-17T06:51:45.547Z,3.67
2022-12-17T06:54:07.403Z,3.71
2022-12-17T06:56:27.383Z,3.75
2022-12-17T06:58:47.337Z,3.72
2022-12-17T07:01:07.680Z,3.72
2022-12-17T07:03:30.580Z,3.80
2022-12-17T07:05:50.802Z,3.74
2022-12-17T07:08:17.802Z,3.78
2022-12-17T07:10:38.131Z,3.76
2022-12-17T07:12:58.308Z,3.79
2022-12-17T07:15:18.352Z,3.83
2022-12-17T07:17:46.573Z,3.88
2022-12-17T07:20:06.516Z,3.89
2022-12-17T07:22:27.041Z,3.84
2022-12-17T07:24:48.029Z,3.80
2022-12-17T07:27:08.210Z,3.90
2022-12-17T07:29:28.834Z,3.89
2022-12-17T07:31:49.410Z,3.99
2022-12-17T07:34:09.852Z,3.98
2022-12-17T07:36:30.313Z,4.01
2022-12-17T07:38:50.737Z,4.05
2022-12-17T07:41:10.936Z,4.07
2022-12-17T07:43:32.118Z,4.10
2022-12-17T07:45:52.368Z,4.10
2022-12-17T07:48:13.568Z,4.08
2022-12-17T07:50:33.648Z,4.12
2022-12-17T07:52:54.190Z,4.17
2022-12-17T07:55:18.236Z,4.15
2022-12-17T07:57:41.643Z,4.13
2022-12-17T08:00:02.188Z,4.09
2022-12-17T08:02:22.903Z,3.96
2022-12-17T08:04:42.909Z,4.07
2022-12-17T08:07:08.829Z,4.02
2022-12-17T08:09:32.005Z,3.84
2022-12-17T08:11:52.028Z,3.95
2022-12-17T08:14:12.557Z,4.05
2022-12-17T08:16:32.959Z,4.12
2022-12-17T08:18:53.186Z,4.17
2022-12-17T08:21:13.549Z,4.16
2022-12-17T08:23:34.280Z,4.22
2022-12-17T08:25:54.311Z,4.20
2022-12-17T08:28:48.355Z,4.26
2022-12-17T08:30:56.936Z,4.19
2022-12-17T08:33:21.682Z,4.21
2022-12-17T08:35:41.946Z,4.19
2022-12-17T08:38:02.580Z,4.15
2022-12-17T08:40:23.064Z,4.21
2022-12-17T08:42:44.049Z,4.24
2022-12-17T08:45:04.469Z,4.21
2022-12-17T08:47:24.920Z,4.28
2022-12-17T08:49:45.381Z,4.37
2022-12-17T08:52:05.945Z,4.39
2022-12-17T08:54:26.189Z,4.38
2022-12-17T08:56:46.718Z,4.44
2022-12-17T08:59:07.061Z,4.43
2022-12-17T09:01:27.765Z,4.44
2022-12-17T09:03:48.240Z,4.44
2022-12-17T09:06:11.175Z,4.44
2022-12-17T09:08:31.660Z,4.33
2022-12-17T09:10:52.400Z,4.38
2022-12-17T09:13:12.669Z,4.35
2022-12-17T09:15:33.097Z,4.33
2022-12-17T09:17:55.919Z,4.41
2022-12-17T09:20:16.129Z,4.34
2022-12-17T09:22:36.191Z,4.43
2022-12-17T09:24:56.604Z,4.47
2022-12-17T09:27:16.853Z,4.44
2022-12-17T09:29:37.384Z,4.45
2022-12-17T09:31:57.761Z,4.42
2022-12-17T09:34:18.175Z,4.53
2022-12-17T09:36:38.572Z,4.57
2022-12-17T09:38:58.747Z,4.61
2022-12-17T09:41:46.955Z,4.68
2022-12-17T09:44:35.841Z,4.61
2022-12-17T09:47:07.348Z,4.69
2022-12-17T09:49:47.498Z,4.76
2022-12-17T09:52:07.686Z,4.72
2022-12-17T09:54:40.603Z,4.79
2022-12-17T09:57:02.147Z,4.77
2022-12-17T09:59:22.785Z,4.83
2022-12-17T10:01:46.149Z,4.82
2022-12-17T10:04:08.148Z,4.85
2022-12-17T10:06:36.886Z,4.94
2022-12-17T10:08:57.302Z,4.94
2022-12-17T10:11:34.160Z,5.00
2022-12-17T10:13:55.050Z,5.01
2022-12-17T10:16:15.331Z,5.03
2022-12-17T10:18:36.336Z,5.06
2022-12-17T10:21:24.539Z,5.06
2022-12-17T10:23:52.113Z,5.11
2022-12-17T10:26:14.770Z,5.12
2022-12-17T10:28:41.467Z,5.17
2022-12-17T10:31:01.919Z,5.16
2022-12-17T10:33:26.963Z,5.13
2022-12-17T10:35:57.353Z,5.26
2022-12-17T10:38:20.218Z,5.27
2022-12-17T10:40:48.331Z,5.37
2022-12-17T10:43:08.777Z,5.38
2022-12-17T10:45:41.410Z,5.43
2022-12-17T10:48:07.530Z,5.38
2022-12-17T10:50:41.916Z,5.44
2022-12-17T10:53:04.596Z,5.44
2022-12-17T10:55:37.501Z,5.56
2022-12-17T10:58:11.098Z,5.51
2022-12-17T11:00:45.684Z,5.58
2022-12-17T11:03:09.544Z,5.68
2022-12-17T11:05:43.701Z,5.58
2022-12-17T11:08:07.470Z,5.73
2022-12-17T11:10:40.649Z,5.84
2022-12-17T11:13:13.917Z,5.89
2022-12-17T11:15:40.887Z,5.92
2022-12-17T11:18:11.525Z,5.94
2022-12-17T11:20:43.364Z,5.99
2022-12-17T11:23:08.781Z,6.09
2022-12-17T11:25:47.136Z,6.20
2022-12-17T11:28:32.029Z,6.25
2022-12-17T11:31:05.757Z,6.32
2022-12-17T11:33:40.458Z,6.41
2022-12-17T11:36:40.172Z,6.48
2022-12-17T11:39:12.969Z,6.60
2022-12-17T11:41:43.287Z,6.68
2022-12-17T11:44:15.341Z,6.86
2022-12-17T11:46:44.635Z,6.94
2022-12-17T11:49:10.311Z,6.95
2022-12-17T11:51:56.308Z,7.17
2022-12-17T11:54:39.205Z,7.19
2022-12-17T11:57:50.426Z,7.23
2022-12-17T12:00:21.429Z,7.37
2022-12-17T12:03:08.211Z,7.33
2022-12-17T12:05:59.384Z,7.51
2022-12-17T12:08:44.852Z,7.63
2022-12-17T12:11:44.130Z,7.74
2022-12-17T12:14:32.300Z,7.83
2022-12-17T12:17:14.003Z,7.71
2022-12-17T12:19:51.973Z,7.83
2022-12-17T12:22:32.141Z,7.88
2022-12-17T12:25:05.194Z,7.87
2022-12-17T12:27:50.912Z,8.03
2022-12-17T12:30:35.199Z,8.10
2022-12-17T12:33:14.834Z,8.15
2022-12-17T12:35:42.819Z,8.18
2022-12-17T12:38:03.492Z,8.22
2022-12-17T12:40:27.421Z,8.17
2022-12-17T12:43:35.430Z,8.18
2022-12-17T12:46:18.017Z,8.11
2022-12-17T12:49:01.594Z,8.13
2022-12-17T12:51:21.686Z,8.05
2022-12-17T12:53:42.314Z,8.09
2022-12-17T12:56:10.396Z,8.10
2022-12-17T12:58:48.553Z,8.03
2022-12-17T13:01:08.560Z,8.02
2022-12-17T13:03:56.512Z,7.92
2022-12-17T13:05:58.215Z,8.07
2022-12-17T13:08:10.087Z,7.90
2022-12-17T13:10:27.447Z,7.91
2022-12-17T13:12:35.007Z,7.94
2022-12-17T13:15:06.767Z,7.92
2022-12-17T13:17:17.339Z,7.89
2022-12-17T13:19:32.952Z,7.93
2022-12-17T13:21:36.093Z,7.97
2022-12-17T13:23:39.322Z,7.78
2022-12-17T13:25:41.261Z,7.82
2022-12-17T13:27:53.255Z,7.66
2022-12-17T13:29:55.054Z,7.73
2022-12-17T13:32:21.494Z,7.71
2022-12-17T13:34:41.535Z,7.81
2022-12-17T13:37:05.923Z,7.81
2022-12-17T13:39:16.870Z,7.91
2022-12-17T13:41:21.431Z,7.86
2022-12-17T13:43:27.245Z,7.81
2022-12-17T13:45:34.367Z,7.85
2022-12-17T13:48:00.769Z,7.82
2022-12-17T13:50:34.904Z,7.61
2022-12-17T13:52:37.189Z,7.68
2022-12-17T13:54:38.999Z,7.53
2022-12-17T13:56:40.901Z,7.62
2022-12-17T13:58:43.141Z,7.65
2022-12-17T14:00:44.852Z,7.59
2022-12-17T14:02:46.766Z,7.58
2022-12-17T14:04:53.596Z,7.58
2022-12-17T14:07:03.300Z,7.52
2022-12-17T14:09:05.560Z,7.56
2022-12-17T14:11:26.062Z,7.51
2022-12-17T14:13:27.785Z,7.60
2022-12-17T14:15:31.853Z,7.57
2022-12-17T14:17:51.234Z,7.53
2022-12-17T14:20:02.495Z,7.62
2022-12-17T14:22:04.239Z,7.64
2022-12-17T14:24:06.426Z,7.49
2022-12-17T14:26:12.429Z,7.54
2022-12-17T14:28:25.210Z,7.27
2022-12-17T14:30:33.095Z,7.45
2022-12-17T14:32:36.623Z,7.43
2022-12-17T14:34:42.236Z,7.44
2022-12-17T14:36:44.488Z,7.35
2022-12-17T14:38:57.670Z,7.40
2022-12-17T14:41:39.397Z,7.41
2022-12-17T14:43:41.374Z,7.42
2022-12-17T14:46:16.737Z,7.33
2022-12-17T14:48:18.459Z,7.28
2022-12-17T14:50:20.067Z,7.32
2022-12-17T14:52:35.676Z,7.31
2022-12-17T14:54:44.545Z,7.35
2022-12-17T14:56:49.359Z,7.30
2022-12-17T14:58:51.019Z,7.23
2022-12-17T15:01:08.184Z,7.29
2022-12-17T15:03:15.830Z,7.29
2022-12-17T15:05:17.915Z,7.29
2022-12-17T15:07:27.725Z,7.39
2022-12-17T15:09:29.491Z,7.35
2022-12-17T15:11:31.181Z,7.43
2022-12-17T15:13:33.074Z,7.44
2022-12-17T15:15:34.804Z,7.45
2022-12-17T15:17:46.149Z,7.39
2022-12-17T15:19:51.445Z,7.47
2022-12-17T15:21:57.678Z,7.51
2022-12-17T15:23:59.520Z,7.39
2022-12-17T15:26:01.648Z,7.44
2022-12-17T15:28:03.367Z,7.48
2022-12-17T15:30:05.614Z,7.42
2022-12-17T15:32:07.644Z,7.43
2022-12-17T15:34:11.630Z,7.43
2022-12-17T15:36:13.442Z,7.42
2022-12-17T15:38:15.109Z,7.41
2022-12-17T15:40:16.751Z,7.42
2022-12-17T15:42:36.806Z,7.39
2022-12-17T15:44:38.497Z,7.40
2022-12-17T15:46:40.273Z,7.39
2022-12-17T15:48:48.122Z,7.36
2022-12-17T15:50:51.767Z,7.33
2022-12-17T15:52:53.399Z,7.26
2022-12-17T15:54:55.393Z,7.35
2022-12-17T15:56:58.311Z,7.42
2022-12-17T15:59:00.364Z,7.42
2022-12-17T16:01:06.331Z,7.40
2022-12-17T16:03:08.402Z,7.32
2022-12-17T16:05:10.689Z,7.31
2022-12-17T16:07:12.746Z,7.31
2022-12-17T16:09:14.672Z,7.31
2022-12-17T16:11:16.778Z,7.17
2022-12-17T16:13:18.749Z,7.24
2022-12-17T16:15:20.768Z,7.21
2022-12-17T16:17:22.822Z,7.19
2022-12-17T16:19:24.831Z,7.06
2022-12-17T16:21:26.772Z,7.14
2022-12-17T16:23:28.840Z,7.18
2022-12-17T16:25:30.932Z,7.22
2022-12-17T16:27:33.066Z,7.18
2022-12-17T16:29:35.064Z,7.24
2022-12-17T16:31:37.649Z,7.23
2022-12-17T16:33:42.044Z,7.27
2022-12-17T16:35:51.434Z,7.29
2022-12-17T16:37:53.429Z,7.25
2022-12-17T16:39:59.913Z,7.26
2022-12-17T16:42:02.286Z,7.21
2022-12-17T16:44:05.338Z,7.24
2022-12-17T16:46:25.366Z,7.21
2022-12-17T16:48:27.466Z,7.07
2022-12-17T16:50:30.815Z,7.12
2022-12-17T16:52:34.075Z,7.06
2022-12-17T16:54:36.082Z,7.18
2022-12-17T16:56:40.384Z,7.23
2022-12-17T16:58:43.252Z,7.26
2022-12-17T17:00:46.549Z,7.26
2022-12-17T17:02:53.032Z,7.15
2022-12-17T17:04:55.673Z,7.14
2022-12-17T17:06:58.021Z,7.18
2022-12-17T17:09:00.055Z,7.17
2022-12-17T17:11:07.297Z,7.12
2022-12-17T17:13:09.636Z,7.08
2022-12-17T17:15:11.885Z,7.05
2022-12-17T17:17:14.041Z,7.05
2022-12-17T17:19:16.178Z,7.00
2022-12-17T17:21:19.974Z,7.02
2022-12-17T17:23:22.240Z,6.99
2022-12-17T17:25:24.264Z,7.03
2022-12-17T17:27:26.278Z,7.06
2022-12-17T17:29:28.594Z,6.98
2022-12-17T17:33:53.880Z,7.03
2022-12-17T17:35:59.670Z,6.93
2022-12-17T17:38:05.907Z,6.97
2022-12-17T17:40:08.922Z,7.04
2022-12-17T17:42:10.949Z,6.97
2022-12-17T17:44:14.225Z,6.87
2022-12-17T17:46:18.399Z,6.90
2022-12-17T17:48:20.395Z,6.91
2022-12-17T17:50:22.378Z,6.88
2022-12-17T17:52:24.348Z,6.90
2022-12-17T17:54:26.505Z,6.77
2022-12-17T17:56:31.413Z,6.74
2022-12-17T17:58:34.693Z,6.79
2022-12-17T18:00:37.889Z,6.78
2022-12-17T18:02:40.610Z,6.75
2022-12-17T18:04:43.000Z,6.60
2022-12-17T18:07:16.104Z,6.58
2022-12-17T18:09:09.405Z,6.61
2022-12-17T18:11:13.972Z,6.55
2022-12-17T18:13:19.110Z,6.60
2022-12-17T18:15:21.190Z,6.49
2022-12-17T18:17:23.214Z,6.51
2022-12-17T18:19:25.175Z,6.47
2022-12-17T18:21:29.005Z,6.51
2022-12-17T18:23:31.049Z,6.42
2022-12-17T18:25:37.731Z,6.40
2022-12-17T18:27:40.184Z,6.40
2022-12-17T18:29:42.165Z,6.39
2022-12-17T18:31:50.005Z,6.48
2022-12-17T18:33:57.040Z,6.46
2022-12-17T18:35:59.029Z,6.46
2022-12-17T18:38:00.947Z,6.46
2022-12-17T18:40:04.112Z,6.40
2022-12-17T18:42:09.385Z,6.32
2022-12-17T18:44:12.761Z,6.41
2022-12-17T18:46:18.004Z,6.43
2022-12-17T18:48:23.951Z,6.34
2022-12-17T18:50:25.849Z,6.29
2022-12-17T18:52:28.461Z,6.26
2022-12-17T18:54:31.819Z,6.21
2022-12-17T18:57:00.003Z,6.28
2022-12-17T18:58:57.482Z,6.17
2022-12-17T19:00:59.547Z,6.08
2022-12-17T19:03:01.750Z,6.04
2022-12-17T19:05:04.484Z,6.17
2022-12-17T19:07:06.723Z,6.05
2022-12-17T19:09:15.575Z,6.05
2022-12-17T19:11:21.357Z,5.98
2022-12-17T19:13:23.344Z,6.03
2022-12-17T19:15:25.309Z,6.06
2022-12-17T19:17:27.311Z,5.96
2022-12-17T19:19:29.550Z,6.02
2022-12-17T19:21:33.889Z,5.85
2022-12-17T19:23:36.220Z,5.89
2022-12-17T19:25:38.216Z,5.87
2022-12-17T19:27:40.161Z,5.88
2022-12-17T19:29:47.615Z,5.86
2022-12-17T19:31:51.152Z,5.75
2022-12-17T19:33:56.688Z,5.82
2022-12-17T19:36:01.897Z,5.74
2022-12-17T19:38:03.952Z,5.76
2022-12-17T19:40:06.772Z,5.73
2022-12-17T19:42:25.079Z,5.65
2022-12-17T19:44:27.495Z,5.71
2022-12-17T19:46:31.159Z,5.63
2022-12-17T19:48:34.671Z,5.58
2022-12-17T19:50:36.720Z,5.74
2022-12-17T19:52:38.647Z,5.54
2022-12-17T19:54:40.614Z,5.51
2022-12-17T19:56:44.571Z,5.64
2022-12-17T19:58:48.888Z,5.73
2022-12-17T20:00:52.358Z,5.70
2022-12-17T20:02:54.557Z,5.62
2022-12-17T20:04:56.845Z,5.53
2022-12-17T20:07:00.817Z,5.42
2022-12-17T20:09:05.304Z,5.48
2022-12-17T20:11:29.450Z,5.57
2022-12-17T20:13:31.426Z,5.40
2022-12-17T20:15:33.477Z,5.38
2022-12-17T20:17:35.443Z,5.38
2022-12-17T20:19:37.482Z,5.47
2022-12-17T20:21:39.973Z,5.45
2022-12-17T20:23:41.955Z,5.40
2022-12-17T20:25:43.905Z,5.39
2022-12-17T20:27:45.939Z,5.45
2022-12-17T20:29:48.307Z,5.53
2022-12-17T20:31:51.498Z,5.51
2022-12-17T20:33:53.602Z,5.51
2022-12-17T20:35:55.812Z,5.47
2022-12-17T20:37:57.734Z,5.56
2022-12-17T20:39:59.686Z,5.45
2022-12-17T20:42:01.684Z,5.37
2022-12-17T20:44:07.085Z,5.35
2022-12-17T20:46:10.563Z,5.44
2022-12-17T20:48:13.551Z,5.34
2022-12-17T20:50:15.563Z,5.37
2022-12-17T20:52:17.548Z,5.18
2022-12-17T20:54:19.521Z,5.27
2022-12-17T20:56:25.383Z,5.31
2022-12-17T20:58:27.373Z,5.26
2022-12-17T21:00:29.309Z,5.29
2022-12-17T21:02:31.450Z,5.33
2022-12-17T21:04:33.595Z,5.33
2022-12-17T21:06:39.498Z,5.22
2022-12-17T21:08:47.888Z,5.14
2022-12-17T21:10:56.687Z,5.17
2022-12-17T21:13:01.684Z,5.01
2022-12-17T21:15:04.195Z,5.09
2022-12-17T21:17:06.288Z,5.02
2022-12-17T21:19:09.350Z,5.05
2022-12-17T21:21:14.520Z,5.10
2022-12-17T21:23:16.431Z,5.04
2022-12-17T21:25:18.611Z,5.02
2022-12-17T21:27:22.484Z,5.03
2022-12-17T21:29:24.936Z,5.02
2022-12-17T21:31:29.706Z,4.95
2022-12-17T21:33:32.084Z,5.03
2022-12-17T21:35:34.651Z,4.95
2022-12-17T21:37:36.699Z,4.93
2022-12-17T21:39:38.681Z,5.06
2022-12-17T21:41:44.979Z,4.91
2022-12-17T21:43:47.328Z,4.87
2022-12-17T21:45:49.440Z,4.86
2022-12-17T21:47:51.518Z,4.75
2022-12-17T21:49:53.442Z,4.88
2022-12-17T21:51:55.618Z,4.77
2022-12-17T21:54:00.232Z,4.58
2022-12-17T21:56:05.067Z,4.54
2022-12-17T21:58:08.203Z,4.70
2022-12-17T22:00:11.086Z,4.63
2022-12-17T22:02:13.228Z,4.58
2022-12-17T22:04:15.461Z,4.60
2022-12-17T22:06:20.767Z,4.62
2022-12-17T22:08:24.321Z,4.58
2022-12-17T22:10:46.759Z,4.51
2022-12-17T22:12:51.619Z,4.60
2022-12-17T22:14:53.616Z,4.50
2022-12-17T22:16:56.281Z,4.43
2022-12-17T22:19:00.373Z,4.37
2022-12-17T22:21:03.792Z,4.42
2022-12-17T22:23:05.867Z,4.39
2022-12-17T22:25:10.775Z,4.42
2022-12-17T22:27:14.744Z,4.50
2022-12-17T22:29:37.194Z,4.55
2022-12-17T22:31:42.628Z,4.41
2022-12-17T22:34:13.664Z,4.37
2022-12-17T22:38:06.144Z,4.24
2022-12-17T22:42:54.357Z,4.31
2022-12-17T22:44:40.880Z,4.30
2022-12-17T22:44:43.982Z,4.34
2022-12-17T22:45:43.211Z,4.37
2022-12-17T22:47:45.295Z,4.28
2022-12-17T22:49:47.209Z,4.22
2022-12-17T22:51:49.248Z,4.14
2022-12-17T22:53:52.040Z,4.26
2022-12-17T22:55:54.294Z,4.16
2022-12-17T22:57:57.500Z,4.12
2022-12-17T22:59:59.465Z,4.17
2022-12-17T23:02:01.571Z,4.11
2022-12-17T23:04:03.966Z,4.09
2022-12-17T23:06:09.028Z,4.14
2022-12-17T23:08:11.038Z,4.12
2022-12-17T23:10:12.973Z,4.19
2022-12-17T23:12:18.128Z,4.15
2022-12-17T23:14:20.152Z,4.14
2022-12-17T23:16:22.482Z,4.04
2022-12-17T23:18:24.825Z,4.13
2022-12-17T23:20:28.885Z,3.92
2022-12-17T23:22:30.871Z,4.05
2022-12-17T23:24:32.930Z,4.03
2022-12-17T23:26:36.703Z,4.07
2022-12-17T23:28:38.997Z,3.98
2022-12-17T23:30:40.945Z,3.93
2022-12-17T23:32:43.352Z,4.01
2022-12-17T23:34:45.320Z,3.91
2022-12-17T23:36:47.645Z,4.00
2022-12-17T23:38:49.740Z,3.99
2022-12-17T23:40:51.771Z,3.91
2022-12-17T23:42:53.756Z,3.98
2022-12-17T23:44:55.747Z,3.92
2022-12-17T23:46:57.806Z,3.94
2022-12-17T23:48:59.802Z,3.93
2022-12-17T23:51:02.568Z,4.01
2022-12-17T23:53:04.450Z,4.07
2022-12-17T23:55:07.250Z,4.06
2022-12-17T23:57:09.349Z,4.06
2022-12-17T23:59:11.499Z,4.04
